Time;durP1;ratioP1;P1;durP2;ratioP2;P2;SDS_P1;SDS_P2;PMS_P1;PMS_P2;Temp;Humidity;BMP_temperature;BMP_pressure;BME280_temperature;BME280_humidity;BME280_pressure;Samples;Min_cycle;Max_cycle;Signal;HPM_P1;HPM_P2
2022/05/23 00:00:11;;;;;;;5.73;4.60;;;11.70;99.90;;;;;;5075138;28;20205;-57
2022/05/23 00:02:39;;;;;;;5.80;4.50;;;11.70;99.90;;;;;;5075344;28;20647;-57
2022/05/23 00:05:07;;;;;;;5.00;4.10;;;11.60;99.90;;;;;;5074868;28;20308;-58
2022/05/23 00:07:36;;;;;;;5.73;5.03;;;11.60;99.90;;;;;;5075292;28;20663;-58
2022/05/23 00:10:07;;;;;;;5.77;4.57;;;11.60;99.90;;;;;;5074903;28;20211;-57
2022/05/23 00:12:33;;;;;;;6.47;4.93;;;11.60;99.90;;;;;;5075272;28;20189;-57
2022/05/23 00:15:00;;;;;;;9.47;7.00;;;11.60;99.90;;;;;;5074953;28;20506;-57
2022/05/23 00:17:27;;;;;;;9.33;6.43;;;11.60;99.90;;;;;;5075071;28;20204;-57
2022/05/23 00:19:54;;;;;;;7.40;5.57;;;11.60;99.90;;;;;;5074901;28;20209;-57
2022/05/23 00:22:21;;;;;;;5.57;4.73;;;11.70;99.90;;;;;;5075129;28;20208;-56
2022/05/23 00:24:47;;;;;;;6.47;4.20;;;11.60;99.90;;;;;;5074794;28;20208;-56
2022/05/23 00:27:19;;;;;;;5.10;4.47;;;11.60;99.90;;;;;;5074804;28;20438;-56
2022/05/23 00:29:46;;;;;;;7.00;4.50;;;11.60;99.90;;;;;;5074657;28;20197;-56
2022/05/23 00:37:41;;;;;;;6.10;4.63;;;11.60;99.90;;;;;;5074257;28;20192;-59
2022/05/23 00:40:21;;;;;;;10.93;5.73;;;11.60;99.90;;;;;;5074336;28;20229;-56
2022/05/23 00:45:35;;;;;;;6.37;4.90;;;11.50;99.90;;;;;;5074292;28;20184;-57
2022/05/23 00:48:02;;;;;;;7.17;5.00;;;11.40;99.90;;;;;;5074106;28;20651;-59
2022/05/23 00:50:31;;;;;;;7.73;5.03;;;11.40;99.90;;;;;;5074396;28;20200;-59
2022/05/23 00:52:59;;;;;;;6.97;5.30;;;11.40;99.90;;;;;;5074180;28;20697;-57
2022/05/23 00:55:29;;;;;;;13.20;5.20;;;11.40;99.90;;;;;;5074220;28;20215;-55
2022/05/23 00:58:02;;;;;;;8.30;5.40;;;11.40;99.90;;;;;;5073511;28;20522;-58
2022/05/23 01:00:29;;;;;;;6.90;5.40;;;11.40;99.90;;;;;;5073981;28;20185;-58
2022/05/23 01:03:01;;;;;;;7.07;5.50;;;11.40;99.90;;;;;;5073914;28;20666;-59
2022/05/23 01:05:28;;;;;;;8.20;5.50;;;11.40;99.90;;;;;;5073780;28;20201;-58
2022/05/23 01:07:55;;;;;;;9.40;6.13;;;11.30;99.90;;;;;;5073967;28;20204;-58
2022/05/23 01:10:22;;;;;;;8.83;6.10;;;11.40;99.90;;;;;;5074124;28;20562;-56
2022/05/23 01:12:49;;;;;;;10.60;6.50;;;11.30;99.90;;;;;;5073667;28;20208;-58
2022/05/23 01:15:20;;;;;;;10.50;7.53;;;11.30;99.90;;;;;;5073946;28;20701;-57
2022/05/23 01:17:48;;;;;;;15.47;9.17;;;11.20;99.90;;;;;;5073726;28;20632;-57
2022/05/23 01:20:16;;;;;;;17.10;9.90;;;11.20;99.90;;;;;;5073696;28;20658;-56
2022/05/23 01:22:51;;;;;;;26.97;13.03;;;11.10;99.90;;;;;;5073590;28;20204;-58
2022/05/23 01:25:28;;;;;;;24.60;13.03;;;11.10;99.90;;;;;;5073752;28;20200;-57
2022/05/23 01:27:55;;;;;;;23.17;12.40;;;11.10;99.90;;;;;;5073340;28;20196;-58
2022/05/23 01:30:22;;;;;;;20.97;11.80;;;11.00;99.90;;;;;;5073729;28;20567;-55
2022/05/23 01:32:49;;;;;;;20.33;11.73;;;11.00;99.90;;;;;;5073348;28;20635;-58
2022/05/23 01:35:16;;;;;;;20.27;11.27;;;11.00;99.90;;;;;;5073730;28;20546;-57
2022/05/23 01:37:43;;;;;;;21.67;11.87;;;11.10;99.90;;;;;;5073128;28;20201;-57
2022/05/23 01:40:13;;;;;;;21.73;11.90;;;11.10;99.90;;;;;;5073259;28;20232;-55
2022/05/23 01:42:42;;;;;;;20.50;11.80;;;11.10;99.90;;;;;;5073513;28;20197;-57
2022/05/23 01:45:10;;;;;;;21.20;11.77;;;11.10;99.90;;;;;;5073141;28;20200;-57
2022/05/23 01:47:36;;;;;;;22.77;12.43;;;11.10;99.90;;;;;;5073220;28;20212;-57
2022/05/23 01:50:04;;;;;;;20.30;12.80;;;11.00;99.90;;;;;;5073277;28;20536;-56
2022/05/23 01:52:31;;;;;;;28.27;13.20;;;11.00;99.90;;;;;;5072751;28;20219;-58
2022/05/23 01:54:58;;;;;;;22.87;13.37;;;11.00;99.90;;;;;;5073221;28;20527;-57
2022/05/23 01:57:25;;;;;;;22.90;13.20;;;11.00;99.90;;;;;;5072749;28;20232;-57
2022/05/23 02:02:38;;;;;;;17.27;10.57;;;10.80;99.90;;;;;;5072709;28;20559;-55
2022/05/23 02:05:06;;;;;;;19.80;12.33;;;10.70;99.90;;;;;;5072759;28;20240;-55
2022/05/23 02:07:33;;;;;;;19.07;10.90;;;10.80;99.90;;;;;;5072690;28;20679;-57
2022/05/23 02:10:00;;;;;;;18.77;12.03;;;10.80;99.90;;;;;;5072389;28;20563;-57
2022/05/23 02:12:26;;;;;;;18.43;11.63;;;10.80;99.90;;;;;;5072778;28;20574;-57
2022/05/23 02:14:55;;;;;;;18.50;11.90;;;10.80;99.90;;;;;;5072530;28;20201;-57
2022/05/23 02:17:22;;;;;;;21.47;12.47;;;10.80;99.90;;;;;;5072633;28;20207;-58
2022/05/23 02:19:49;;;;;;;17.60;11.67;;;10.80;99.90;;;;;;5072068;28;20224;-58
2022/05/23 02:22:16;;;;;;;16.67;11.33;;;10.80;99.90;;;;;;5072219;28;20204;-57
2022/05/23 02:24:43;;;;;;;20.33;12.70;;;10.80;99.90;;;;;;5072203;28;20218;-56
2022/05/23 02:27:10;;;;;;;20.17;11.97;;;10.80;99.90;;;;;;5072223;28;20208;-59
2022/05/23 02:29:37;;;;;;;19.10;11.70;;;10.80;99.90;;;;;;5072261;28;20204;-56
2022/05/23 02:32:06;;;;;;;17.50;11.33;;;10.80;99.90;;;;;;5072094;28;20209;-55
2022/05/23 02:34:33;;;;;;;18.20;11.20;;;10.80;99.90;;;;;;5072202;28;20254;-57
2022/05/23 02:37:00;;;;;;;22.17;13.43;;;10.80;99.90;;;;;;5071999;28;20200;-57
2022/05/23 02:39:27;;;;;;;22.53;13.20;;;10.90;99.90;;;;;;5071883;28;20234;-57
2022/05/23 02:41:54;;;;;;;26.33;14.37;;;10.90;99.90;;;;;;5072143;28;20208;-58
2022/05/23 02:44:21;;;;;;;17.73;12.00;;;10.90;99.90;;;;;;5072067;28;20227;-57
2022/05/23 02:46:48;;;;;;;20.07;11.87;;;10.90;99.90;;;;;;5071592;28;20216;-55
2022/05/23 02:49:16;;;;;;;23.77;12.50;;;11.00;99.90;;;;;;5072080;28;20200;-56
2022/05/23 02:51:43;;;;;;;19.20;12.03;;;11.00;99.90;;;;;;5072012;28;20209;-58
2022/05/23 02:54:09;;;;;;;16.90;11.33;;;11.00;99.90;;;;;;5071990;28;20295;-57
2022/05/23 02:56:37;;;;;;;19.03;12.10;;;11.00;99.90;;;;;;5071678;28;20271;-56
2022/05/23 02:59:04;;;;;;;18.23;11.93;;;11.00;99.90;;;;;;5071839;28;20208;-57
2022/05/23 03:01:31;;;;;;;20.97;11.57;;;11.00;99.90;;;;;;5071805;28;20204;-58
2022/05/23 03:03:57;;;;;;;18.63;11.17;;;11.00;99.90;;;;;;5071892;28;20561;-58
2022/05/23 03:06:25;;;;;;;21.20;13.23;;;11.00;99.90;;;;;;5071655;28;20201;-56
2022/05/23 03:08:52;;;;;;;23.17;13.87;;;11.00;99.90;;;;;;5071843;28;20220;-57
2022/05/23 03:11:18;;;;;;;22.07;12.87;;;11.00;99.90;;;;;;5071736;28;20553;-56
2022/05/23 03:13:46;;;;;;;24.53;12.83;;;11.00;99.90;;;;;;5071787;28;20281;-58
2022/05/23 03:16:14;;;;;;;28.93;13.30;;;11.00;99.90;;;;;;5071752;28;20567;-57
2022/05/23 03:18:41;;;;;;;29.87;13.93;;;11.10;99.90;;;;;;5071553;28;20247;-56
2022/05/23 03:21:10;;;;;;;30.53;14.87;;;11.10;99.90;;;;;;5070743;28;20674;-57
2022/05/23 03:29:12;;;;;;;24.27;13.33;;;11.10;99.90;;;;;;5071382;28;20218;-57
2022/05/23 03:31:39;;;;;;;18.10;11.37;;;11.10;99.90;;;;;;5071332;28;20208;-57
2022/05/23 03:34:06;;;;;;;19.40;12.77;;;11.10;99.90;;;;;;5071026;28;20223;-56
2022/05/23 03:36:32;;;;;;;21.70;12.23;;;11.20;99.90;;;;;;5071271;28;20206;-57
2022/05/23 03:39:02;;;;;;;16.63;10.50;;;11.20;99.90;;;;;;5071463;28;20225;-55
2022/05/23 03:41:29;;;;;;;19.33;11.00;;;11.40;99.90;;;;;;5071733;28;20201;-58
2022/05/23 03:43:56;;;;;;;15.33;10.43;;;11.50;99.90;;;;;;5071489;28;20536;-58
2022/05/23 03:46:23;;;;;;;18.93;11.30;;;11.50;99.90;;;;;;5070903;28;20227;-57
2022/05/23 03:48:49;;;;;;;16.53;10.30;;;11.50;99.90;;;;;;5071421;28;20658;-58
2022/05/23 03:51:16;;;;;;;18.67;11.13;;;11.50;99.90;;;;;;5071260;28;20209;-57
2022/05/23 03:53:43;;;;;;;19.10;11.47;;;11.60;99.90;;;;;;5071300;28;20683;-57
2022/05/23 03:56:12;;;;;;;17.80;10.70;;;11.50;99.90;;;;;;5071354;28;20662;-58
2022/05/23 03:58:39;;;;;;;18.23;11.10;;;11.50;99.90;;;;;;5070839;28;20228;-56
2022/05/23 04:01:08;;;;;;;18.60;11.97;;;11.50;99.90;;;;;;5070850;28;20210;-58
2022/05/23 04:03:35;;;;;;;18.40;11.37;;;11.40;99.90;;;;;;5070834;28;20209;-58
2022/05/23 04:06:02;;;;;;;16.47;10.87;;;11.50;99.90;;;;;;5071182;28;20204;-57
2022/05/23 04:08:30;;;;;;;17.43;11.20;;;11.40;99.90;;;;;;5070971;28;20200;-57
2022/05/23 04:10:57;;;;;;;17.20;11.07;;;11.40;99.90;;;;;;5071073;28;20213;-57
2022/05/23 04:13:26;;;;;;;16.40;10.80;;;11.30;99.90;;;;;;5071114;28;20205;-57
2022/05/23 04:15:53;;;;;;;15.53;10.03;;;11.30;99.90;;;;;;5070947;28;20208;-58
2022/05/23 04:18:20;;;;;;;18.80;10.90;;;11.30;99.90;;;;;;5070731;28;20201;-57
2022/05/23 04:20:47;;;;;;;15.90;10.87;;;11.40;99.90;;;;;;5071154;28;20247;-59
2022/05/23 04:23:14;;;;;;;19.97;11.97;;;11.40;99.90;;;;;;5071007;28;20200;-58
2022/05/23 04:25:42;;;;;;;21.10;12.57;;;11.40;99.90;;;;;;5071381;28;20207;-58
2022/05/23 04:28:09;;;;;;;16.57;10.63;;;11.30;99.90;;;;;;5070885;28;20255;-55
2022/05/23 04:30:38;;;;;;;13.67;9.83;;;11.30;99.90;;;;;;5070894;28;20201;-57
2022/05/23 04:35:51;;;;;;;12.37;8.20;;;11.20;99.90;;;;;;5074227;28;20266;-58
2022/05/23 04:38:18;;;;;;;11.87;8.07;;;11.20;99.90;;;;;;5074157;28;20644;-57
2022/05/23 04:40:45;;;;;;;10.97;7.50;;;11.30;99.90;;;;;;5074331;28;20216;-57
2022/05/23 04:43:12;;;;;;;10.20;7.60;;;11.50;99.90;;;;;;5074312;28;20266;-57
2022/05/23 04:45:40;;;;;;;10.37;7.40;;;11.50;99.90;;;;;;5074185;28;20204;-57
2022/05/23 04:50:52;;;;;;;11.10;7.83;;;11.60;99.90;;;;;;5074180;28;20696;-57
2022/05/23 04:53:20;;;;;;;10.37;7.43;;;11.70;99.90;;;;;;5073933;28;20548;-58
2022/05/23 04:55:46;;;;;;;12.13;7.20;;;11.70;99.90;;;;;;5074072;28;20208;-59
2022/05/23 04:58:14;;;;;;;11.03;7.10;;;11.70;99.90;;;;;;5073565;28;20331;-57
2022/05/23 05:00:43;;;;;;;8.87;6.87;;;11.70;99.90;;;;;;5073898;28;20290;-57
2022/05/23 05:03:10;;;;;;;9.70;7.23;;;11.80;99.90;;;;;;5073760;28;20201;-58
2022/05/23 05:05:37;;;;;;;14.27;7.43;;;11.90;99.90;;;;;;5073794;28;20205;-58
2022/05/23 05:08:05;;;;;;;9.30;6.93;;;12.00;99.90;;;;;;5073545;28;20216;-58
2022/05/23 05:10:32;;;;;;;8.87;6.83;;;12.00;99.90;;;;;;5073976;28;20201;-58
2022/05/23 05:12:59;;;;;;;10.53;5.77;;;12.10;99.90;;;;;;5073663;28;20216;-57
2022/05/23 05:15:28;;;;;;;11.17;6.53;;;12.20;99.90;;;;;;5073645;28;20200;-55
2022/05/23 05:17:56;;;;;;;10.20;6.73;;;12.20;99.90;;;;;;5073606;28;20294;-57
2022/05/23 05:20:24;;;;;;;9.90;5.70;;;12.30;99.90;;;;;;5073306;28;20221;-58
2022/05/23 05:22:52;;;;;;;8.97;5.80;;;12.40;99.90;;;;;;5073445;28;20277;-57
2022/05/23 05:25:19;;;;;;;8.70;5.93;;;12.50;99.90;;;;;;5073469;28;20212;-57
2022/05/23 05:27:46;;;;;;;8.47;5.70;;;12.70;99.90;;;;;;5073652;28;20208;-59
2022/05/23 05:30:15;;;;;;;7.90;5.40;;;12.70;99.90;;;;;;5073530;28;20200;-58
2022/05/23 05:32:47;;;;;;;9.20;5.30;;;12.80;99.90;;;;;;5073617;28;20231;-58
2022/05/23 05:35:22;;;;;;;7.60;5.53;;;12.90;99.90;;;;;;5073516;28;20189;-58
2022/05/23 05:37:54;;;;;;;6.47;5.23;;;12.90;99.90;;;;;;5073509;28;20197;-57
2022/05/23 05:40:23;;;;;;;9.47;5.33;;;12.90;99.90;;;;;;5073062;28;20232;-57
2022/05/23 05:42:54;;;;;;;6.57;4.60;;;13.00;99.90;;;;;;5072310;28;20625;-58
2022/05/23 05:45:29;;;;;;;6.53;4.70;;;13.00;99.90;;;;;;5073168;28;20280;-59
2022/05/23 05:47:57;;;;;;;6.70;4.83;;;13.00;99.90;;;;;;5073141;28;20216;-57
2022/05/23 05:50:28;;;;;;;5.87;5.03;;;13.20;99.90;;;;;;5073152;28;20564;-58
2022/05/23 05:53:00;;;;;;;8.27;5.10;;;13.30;99.90;;;;;;5072885;28;20200;-56
2022/05/23 05:55:27;;;;;;;6.13;4.60;;;13.40;99.90;;;;;;5073407;28;20215;-58
2022/05/23 05:57:54;;;;;;;6.40;4.40;;;13.60;99.90;;;;;;5072585;28;20602;-57
2022/05/23 06:00:21;;;;;;;5.83;4.10;;;13.60;99.90;;;;;;5072935;28;20221;-57
2022/05/23 06:02:49;;;;;;;9.53;4.60;;;13.50;99.90;;;;;;5072867;28;20212;-58
2022/05/23 06:05:16;;;;;;;6.60;4.60;;;13.50;99.90;;;;;;5072649;28;20734;-57
2022/05/23 06:13:12;;;;;;;8.07;5.60;;;13.60;99.90;;;;;;5031536;28;20623;-58
2022/05/23 06:15:39;;;;;;;6.03;4.90;;;13.70;99.90;;;;;;5072687;28;20546;-56
2022/05/23 06:18:07;;;;;;;8.30;4.90;;;13.70;99.90;;;;;;5072289;28;20212;-58
2022/05/23 06:20:34;;;;;;;6.50;4.57;;;13.80;99.90;;;;;;5072368;28;20694;-57
2022/05/23 06:23:02;;;;;;;6.77;4.27;;;13.90;99.90;;;;;;5072133;28;20218;-57
2022/05/23 06:25:30;;;;;;;5.17;4.13;;;14.00;99.90;;;;;;5072455;28;20568;-58
2022/05/23 06:27:57;;;;;;;7.03;5.00;;;14.10;99.90;;;;;;5072173;28;20236;-56
2022/05/23 06:30:25;;;;;;;6.73;4.30;;;14.30;99.90;;;;;;5072486;28;20258;-58
2022/05/23 06:32:52;;;;;;;10.90;4.73;;;14.40;99.90;;;;;;5072360;28;20685;-59
2022/05/23 06:35:19;;;;;;;10.83;5.90;;;14.40;99.90;;;;;;5072251;28;20208;-56
2022/05/23 06:37:46;;;;;;;10.80;6.53;;;14.40;99.90;;;;;;5071926;28;20200;-58
2022/05/23 06:40:15;;;;;;;13.27;7.20;;;14.50;99.90;;;;;;5071647;28;20225;-58
2022/05/23 06:42:42;;;;;;;17.50;7.33;;;14.70;99.90;;;;;;5072258;28;20258;-58
2022/05/23 06:45:11;;;;;;;13.03;8.00;;;14.90;99.90;;;;;;5072083;28;20231;-60
2022/05/23 06:47:38;;;;;;;10.80;7.17;;;15.00;99.90;;;;;;5072168;28;20223;-58
2022/05/23 06:50:06;;;;;;;10.60;6.80;;;15.20;99.90;;;;;;5071567;28;20212;-59
2022/05/23 06:52:34;;;;;;;14.07;7.20;;;15.20;99.90;;;;;;5071774;28;20212;-57
2022/05/23 06:55:01;;;;;;;13.43;7.40;;;15.30;99.90;;;;;;5071399;28;20212;-58
2022/05/23 06:57:29;;;;;;;15.87;6.73;;;15.30;99.90;;;;;;5071707;28;20636;-58
2022/05/23 06:59:56;;;;;;;11.87;7.17;;;15.30;99.90;;;;;;5071808;28;20228;-57
2022/05/23 07:02:23;;;;;;;12.60;7.13;;;15.30;99.90;;;;;;5071898;28;20705;-58
2022/05/23 07:13:03;;;;;;;15.67;7.50;;;15.50;99.90;;;;;;5071354;28;20188;-57
2022/05/23 07:15:35;;;;;;;15.50;8.03;;;15.60;99.90;;;;;;5071670;28;20571;-59
2022/05/23 07:18:03;;;;;;;11.23;6.73;;;15.80;99.90;;;;;;5071254;28;20276;-58
2022/05/23 07:20:30;;;;;;;13.70;7.30;;;16.00;99.90;;;;;;5071612;28;20450;-59
2022/05/23 07:22:57;;;;;;;15.67;7.00;;;16.10;99.90;;;;;;5071426;28;20610;-57
2022/05/23 07:25:24;;;;;;;11.83;7.50;;;16.30;99.90;;;;;;5071324;28;20250;-59
2022/05/23 07:27:51;;;;;;;10.93;6.50;;;16.30;99.90;;;;;;5071215;28;20212;-58
2022/05/23 07:30:21;;;;;;;9.87;5.50;;;16.30;99.90;;;;;;5071133;28;20206;-60
2022/05/23 07:32:49;;;;;;;8.57;5.57;;;16.30;99.90;;;;;;5071329;28;20658;-58
2022/05/23 07:35:16;;;;;;;8.23;5.20;;;16.30;99.90;;;;;;5071570;28;20278;-59
2022/05/23 07:37:43;;;;;;;9.90;4.57;;;16.40;99.90;;;;;;5071431;28;20560;-57
2022/05/23 07:40:11;;;;;;;8.97;4.70;;;16.30;99.90;;;;;;5071226;28;20233;-56
2022/05/23 07:42:38;;;;;;;6.47;4.63;;;16.30;99.90;;;;;;5071063;28;20211;-60
2022/05/23 07:45:06;;;;;;;6.33;4.20;;;16.30;99.90;;;;;;5071227;28;20200;-59
2022/05/23 07:47:34;;;;;;;7.17;3.50;;;16.40;99.90;;;;;;5071099;28;20213;-59
2022/05/23 07:50:01;;;;;;;6.30;3.67;;;16.50;99.90;;;;;;5071646;28;20291;-57
2022/05/23 07:52:28;;;;;;;6.93;3.43;;;16.40;99.90;;;;;;5071396;28;20205;-59
2022/05/23 08:00:32;;;;;;;4.67;3.43;;;16.30;99.90;;;;;;5029952;28;20232;-59
2022/05/23 08:03:02;;;;;;;5.37;3.40;;;16.30;99.90;;;;;;5071020;28;20189;-58
2022/05/23 08:05:29;;;;;;;4.03;2.97;;;16.30;99.90;;;;;;5071208;28;20206;-59
2022/05/23 08:07:56;;;;;;;4.93;3.07;;;16.40;99.90;;;;;;5074289;28;20212;-60
2022/05/23 08:10:23;;;;;;;4.73;2.87;;;16.40;99.90;;;;;;5075125;28;20563;-59
2022/05/23 08:12:52;;;;;;;6.03;3.10;;;16.50;99.90;;;;;;5075046;28;20697;-56
2022/05/23 08:15:20;;;;;;;4.67;3.20;;;16.70;99.90;;;;;;5074915;28;20304;-59
2022/05/23 08:17:47;;;;;;;4.93;3.07;;;16.90;99.90;;;;;;5074802;28;20202;-58
2022/05/23 08:20:15;;;;;;;4.63;3.17;;;17.00;99.90;;;;;;5074942;28;20232;-58
2022/05/23 08:22:42;;;;;;;6.83;3.17;;;16.90;99.90;;;;;;5074790;28;20229;-59
2022/05/23 08:25:10;;;;;;;7.27;3.13;;;16.90;99.90;;;;;;5074953;28;20627;-58
2022/05/23 08:27:37;;;;;;;4.00;2.80;;;16.90;99.90;;;;;;5074820;28;20205;-56
2022/05/23 08:30:05;;;;;;;5.23;2.93;;;16.90;99.90;;;;;;5074362;28;20300;-57
2022/05/23 08:32:31;;;;;;;6.37;2.40;;;16.80;99.90;;;;;;5074621;28;20210;-58
2022/05/23 08:34:58;;;;;;;3.83;2.60;;;16.80;99.90;;;;;;5074562;28;20204;-56
2022/05/23 08:37:26;;;;;;;5.33;2.87;;;16.90;99.90;;;;;;5074782;28;20232;-59
2022/05/23 08:39:53;;;;;;;4.47;2.70;;;17.00;99.90;;;;;;5074343;28;20225;-60
2022/05/23 08:42:29;;;;;;;4.57;2.57;;;16.90;99.90;;;;;;5074556;28;20229;-58
2022/05/23 08:45:07;;;;;;;4.73;2.27;;;17.00;99.90;;;;;;5074476;28;20187;-58
2022/05/23 08:47:42;;;;;;;5.40;2.57;;;17.00;99.90;;;;;;5074340;28;20239;-59
2022/05/23 08:50:17;;;;;;;4.83;2.77;;;17.10;99.90;;;;;;5074512;28;20253;-59
2022/05/23 08:52:49;;;;;;;7.37;3.07;;;17.10;99.90;;;;;;5074277;28;20529;-58
2022/05/23 08:55:20;;;;;;;5.17;3.13;;;17.00;99.90;;;;;;5074221;28;20194;-62
2022/05/23 08:57:56;;;;;;;6.60;3.27;;;17.00;99.90;;;;;;5073840;28;20366;-58
2022/05/23 09:00:27;;;;;;;8.27;4.53;;;17.00;99.90;;;;;;5074259;28;20212;-58
2022/05/23 09:02:59;;;;;;;6.13;3.47;;;16.90;99.90;;;;;;5073870;28;20198;-57
2022/05/23 09:05:32;;;;;;;6.17;3.30;;;16.80;99.90;;;;;;5073896;28;20187;-58
2022/05/23 09:08:04;;;;;;;6.67;3.57;;;16.80;99.90;;;;;;5074194;28;20194;-58
2022/05/23 09:10:38;;;;;;;8.93;3.83;;;16.70;99.90;;;;;;5073566;28;20189;-59
2022/05/23 09:13:07;;;;;;;6.33;3.60;;;16.60;99.90;;;;;;5073741;28;20200;-59
2022/05/23 09:15:34;;;;;;;9.30;5.00;;;16.60;99.90;;;;;;5073875;28;20632;-59
2022/05/23 09:18:05;;;;;;;10.37;4.87;;;16.60;99.90;;;;;;5073737;28;20342;-60
2022/05/23 09:20:41;;;;;;;11.50;5.33;;;16.70;99.90;;;;;;5073097;28;20217;-58
2022/05/23 09:23:12;;;;;;;11.87;5.37;;;16.80;99.90;;;;;;5073749;28;20668;-60
2022/05/23 09:25:39;;;;;;;9.17;5.40;;;16.90;99.90;;;;;;5073708;28;20542;-59
2022/05/23 09:28:16;;;;;;;12.70;5.67;;;16.90;99.90;;;;;;5073723;28;20617;-60
2022/05/23 09:30:46;;;;;;;9.40;5.10;;;16.80;99.90;;;;;;5073371;28;20196;-60
2022/05/23 09:33:16;;;;;;;9.10;4.50;;;16.80;99.90;;;;;;5073478;28;20196;-60
2022/05/23 09:35:51;;;;;;;11.90;4.67;;;16.80;99.90;;;;;;5073030;28;20219;-59
2022/05/23 09:38:22;;;;;;;6.83;3.90;;;16.90;99.90;;;;;;5073726;28;20597;-60
2022/05/23 09:40:50;;;;;;;7.90;4.20;;;16.90;99.90;;;;;;5073485;28;20352;-59
2022/05/23 09:49:11;;;;;;;6.17;3.37;;;16.80;99.90;;;;;;5073035;28;20219;-57
2022/05/23 09:51:54;;;;;;;6.33;3.50;;;16.80;99.90;;;;;;5073157;28;20635;-58
2022/05/23 09:54:29;;;;;;;6.53;3.60;;;16.90;99.90;;;;;;5073180;28;20196;-57
2022/05/23 09:56:56;;;;;;;7.70;2.80;;;17.00;99.90;;;;;;5072541;28;20239;-58
2022/05/23 09:59:28;;;;;;;6.93;2.77;;;17.10;99.90;;;;;;5073024;28;20222;-60
2022/05/23 10:01:56;;;;;;;6.57;3.10;;;17.20;99.90;;;;;;5072774;28;20210;-60
2022/05/23 10:04:29;;;;;;;4.93;2.97;;;17.40;99.90;;;;;;5072966;28;20209;-58
2022/05/23 10:06:56;;;;;;;7.10;3.07;;;17.40;99.90;;;;;;5072926;28;20195;-58
2022/05/23 10:09:31;;;;;;;9.57;3.33;;;17.50;99.90;;;;;;5072750;28;20207;-60
2022/05/23 10:12:01;;;;;;;22.97;4.40;;;17.50;99.90;;;;;;5072898;28;20192;-59
2022/05/23 10:14:43;;;;;;;6.67;3.50;;;17.50;99.90;;;;;;5072586;28;20207;-56
2022/05/23 10:17:10;;;;;;;6.77;3.30;;;17.50;99.90;;;;;;5072463;28;20217;-58
2022/05/23 10:19:39;;;;;;;6.77;3.20;;;17.30;99.90;;;;;;5072555;28;20205;-59
2022/05/23 10:22:10;;;;;;;4.20;2.83;;;17.30;99.90;;;;;;5072278;28;20228;-58
2022/05/23 10:24:43;;;;;;;5.27;2.87;;;17.20;99.90;;;;;;5072577;28;20203;-59
2022/05/23 10:27:15;;;;;;;7.50;2.93;;;17.00;99.90;;;;;;5072708;28;20197;-58
2022/05/23 10:29:52;;;;;;;5.93;2.80;;;16.90;99.90;;;;;;5071561;28;20192;-58
2022/05/23 10:32:27;;;;;;;7.67;3.13;;;16.70;99.90;;;;;;5072174;28;20238;-60
2022/05/23 10:35:02;;;;;;;6.40;4.17;;;16.60;99.90;;;;;;5072471;28;20189;-56
2022/05/23 10:37:32;;;;;;;5.23;3.40;;;16.40;99.90;;;;;;5072184;28;20599;-57
2022/05/23 10:42:49;;;;;;;4.93;3.00;;;16.20;99.90;;;;;;5071850;28;20215;-58
2022/05/23 10:45:27;;;;;;;6.33;2.60;;;16.10;99.90;;;;;;5071750;28;20187;-58
2022/05/23 10:48:12;;;;;;;5.17;2.80;;;16.10;99.90;;;;;;5072207;28;20547;-58
2022/05/23 10:50:50;;;;;;;7.70;2.70;;;16.10;99.90;;;;;;5071954;28;20196;-59
2022/05/23 10:53:33;;;;;;;4.67;2.93;;;16.00;99.90;;;;;;5071825;28;20193;-57
2022/05/23 10:56:11;;;;;;;4.57;2.57;;;16.10;99.90;;;;;;5072050;28;20193;-58
2022/05/23 10:58:43;;;;;;;4.03;2.90;;;16.20;99.90;;;;;;5071512;28;20238;-59
2022/05/23 11:01:27;;;;;;;6.10;2.80;;;16.20;99.90;;;;;;5072041;28;20236;-57
2022/05/23 11:04:06;;;;;;;4.30;2.70;;;16.20;99.90;;;;;;5071632;28;20224;-59
2022/05/23 11:06:42;;;;;;;4.17;2.70;;;16.20;99.90;;;;;;5071866;28;20200;-59
2022/05/23 11:09:22;;;;;;;5.50;2.70;;;16.20;99.90;;;;;;5071605;28;20189;-57
2022/05/23 11:12:01;;;;;;;5.77;3.00;;;16.20;99.90;;;;;;5071810;28;20196;-58
2022/05/23 11:14:35;;;;;;;8.53;2.90;;;16.30;99.90;;;;;;5071825;28;20650;-57
2022/05/23 11:17:16;;;;;;;6.43;3.03;;;16.30;99.90;;;;;;5071740;28;20200;-57
2022/05/23 11:19:57;;;;;;;7.20;3.10;;;16.20;99.90;;;;;;5071647;28;20196;-58
2022/05/23 11:22:28;;;;;;;5.87;2.93;;;16.10;99.90;;;;;;5071588;28;20209;-58
2022/05/23 11:25:05;;;;;;;5.60;3.30;;;16.10;99.90;;;;;;5071545;28;20189;-57
2022/05/23 11:35:56;;;;;;;4.50;2.87;;;16.00;99.90;;;;;;5071332;28;20220;-60
2022/05/23 11:38:23;;;;;;;5.43;3.00;;;15.90;99.90;;;;;;5071500;28;20707;-59
2022/05/23 11:41:10;;;;;;;9.10;3.20;;;15.90;99.90;;;;;;5071568;28;20227;-58
2022/05/23 11:43:38;;;;;;;6.77;2.87;;;16.00;99.90;;;;;;5075802;28;20192;-59
2022/05/23 11:46:10;;;;;;;7.10;3.33;;;16.00;99.90;;;;;;5075669;28;20682;-59
2022/05/23 11:48:58;;;;;;;5.57;2.90;;;16.00;99.90;;;;;;5075596;28;20663;-57
2022/05/23 11:51:57;;;;;;;3.03;2.30;;;16.00;99.90;;;;;;5075394;28;20188;-58
2022/05/23 11:54:37;;;;;;;13.50;4.30;;;16.00;99.90;;;;;;5075541;28;20193;-58
2022/05/23 11:57:15;;;;;;;3.00;2.40;;;16.00;99.90;;;;;;5075332;28;20694;-58
2022/05/23 12:00:06;;;;;;;3.57;2.40;;;16.00;99.90;;;;;;5075581;28;20193;-58
2022/05/23 12:02:38;;;;;;;3.53;2.17;;;16.10;99.90;;;;;;5075197;28;20291;-59
2022/05/23 12:05:29;;;;;;;6.73;2.60;;;16.20;99.90;;;;;;5075323;28;20194;-58
2022/05/23 12:08:02;;;;;;;5.67;2.63;;;16.30;99.90;;;;;;5075426;28;20230;-57
2022/05/23 12:10:54;;;;;;;8.47;3.03;;;16.40;99.90;;;;;;5074792;28;20189;-57
2022/05/23 12:13:40;;;;;;;5.87;2.47;;;16.40;99.90;;;;;;5075178;28;20188;-59
2022/05/23 12:16:39;;;;;;;7.00;2.40;;;16.60;99.90;;;;;;5074795;28;20240;-59
2022/05/23 12:19:35;;;;;;;5.10;2.10;;;16.70;99.90;;;;;;5074984;28;20189;-58
2022/05/23 12:22:31;;;;;;;4.23;2.20;;;16.90;99.90;;;;;;5074615;28;20248;-59
2022/05/23 12:25:17;;;;;;;4.73;2.17;;;17.00;99.90;;;;;;5074792;28;20189;-58
2022/05/23 12:28:04;;;;;;;3.87;2.50;;;17.10;99.90;;;;;;5072965;28;20210;-58
2022/05/23 12:30:42;;;;;;;3.43;2.20;;;17.20;99.90;;;;;;5075017;28;20624;-58
2022/05/23 12:33:22;;;;;;;2.63;2.10;;;17.20;99.90;;;;;;5074839;28;20231;-59
2022/05/23 12:35:55;;;;;;;3.17;2.30;;;17.30;99.90;;;;;;5074723;28;20238;-62
2022/05/23 12:38:36;;;;;;;4.30;2.50;;;17.40;99.90;;;;;;5074548;28;20231;-58
2022/05/23 12:41:14;;;;;;;3.83;2.13;;;17.60;99.90;;;;;;5074335;28;20197;-62
2022/05/23 12:43:54;;;;;;;3.10;2.20;;;17.80;99.90;;;;;;5074806;28;20192;-60
2022/05/23 12:46:32;;;;;;;4.37;2.20;;;17.80;99.90;;;;;;5073992;28;20223;-58
2022/05/23 12:49:29;;;;;;;3.87;2.20;;;17.90;99.90;;;;;;5074242;28;20505;-57
2022/05/23 12:52:09;;;;;;;3.90;2.27;;;18.00;99.90;;;;;;5073658;28;20201;-57
2022/05/23 12:54:50;;;;;;;5.87;2.37;;;18.10;99.90;;;;;;5074014;28;20205;-57
2022/05/23 12:57:38;;;;;;;6.33;2.70;;;18.10;99.90;;;;;;5073842;28;20234;-59
2022/05/23 13:00:07;;;;;;;3.93;2.50;;;17.80;99.90;;;;;;5074038;28;20566;-57
2022/05/23 13:02:39;;;;;;;3.77;2.50;;;17.70;99.90;;;;;;5074063;28;20553;-58
2022/05/23 13:05:13;;;;;;;2.87;2.30;;;17.60;99.90;;;;;;5073617;28;20282;-60
2022/05/23 13:07:50;;;;;;;9.70;2.23;;;17.40;99.90;;;;;;5073977;28;20194;-58
2022/05/23 13:10:22;;;;;;;6.40;2.80;;;17.30;99.90;;;;;;5073876;28;20244;-60
2022/05/23 13:12:58;;;;;;;4.27;2.33;;;17.20;99.90;;;;;;5073904;28;20545;-58
2022/05/23 13:15:28;;;;;;;4.33;2.20;;;17.10;99.90;;;;;;5073925;28;20194;-58
2022/05/23 13:22:05;;;;;;;4.30;2.40;;;17.00;99.90;;;;;;5073857;28;20208;-58
2022/05/23 13:23:31;;;;;;;2.73;2.03;;;16.70;99.90;;;;;;5073550;28;20214;-58
2022/05/23 13:25:58;;;;;;;2.83;2.20;;;16.80;99.90;;;;;;5073659;28;20205;-60
2022/05/23 13:28:26;;;;;;;4.03;2.10;;;16.80;99.90;;;;;;5073727;28;20728;-62
2022/05/23 13:30:56;;;;;;;4.10;2.43;;;16.80;99.90;;;;;;5073639;28;20299;-58
2022/05/23 13:33:26;;;;;;;2.37;2.10;;;16.90;99.90;;;;;;5073599;28;20252;-59
2022/05/23 13:35:57;;;;;;;3.07;1.90;;;17.00;99.90;;;;;;5073728;28;20219;-59
2022/05/23 13:38:27;;;;;;;4.60;2.13;;;17.00;99.90;;;;;;5073498;28;20537;-57
2022/05/23 13:40:56;;;;;;;3.43;2.20;;;17.00;99.90;;;;;;5073466;28;20211;-59
2022/05/23 13:43:25;;;;;;;3.30;2.10;;;17.10;99.90;;;;;;5072965;28;20242;-58
2022/05/23 13:46:12;;;;;;;5.17;2.10;;;17.10;99.90;;;;;;5073055;28;20216;-58
2022/05/23 13:48:43;;;;;;;2.87;2.03;;;17.00;99.90;;;;;;5073062;28;20266;-59
2022/05/23 13:51:14;;;;;;;2.50;2.03;;;16.90;99.90;;;;;;5073166;28;20659;-60
2022/05/23 13:53:47;;;;;;;3.37;2.20;;;16.90;99.90;;;;;;5073338;28;20213;-59
2022/05/23 13:56:14;;;;;;;3.60;2.20;;;17.00;99.90;;;;;;5072703;28;20188;-60
2022/05/23 13:58:46;;;;;;;3.27;2.30;;;17.10;99.90;;;;;;5072918;28;20248;-59